sensor_id;sensor_type;location;lat;lon;timestamp;noise_LAeq;noise_LA_min;noise_LA_max;noise_LA01;noise_LA95
67300;Laerm;57658;51.436;5.980;2023-04-15T00:00:08;53.12;31.56;67.19;;
67300;Laerm;57658;51.436;5.980;2023-04-15T00:00:19;58.57;46.72;65.69;;
67300;Laerm;57658;51.436;5.980;2023-04-15T00:00:29;46.50;36.51;53.93;;
67300;Laerm;57658;51.436;5.980;2023-04-15T00:00:40;34.57;30.83;38.56;;
67300;Laerm;57658;51.436;5.980;2023-04-15T00:00:50;32.21;30.48;38.48;;
67300;Laerm;57658;51.436;5.980;2023-04-15T00:01:01;31.87;30.55;33.55;;
67300;Laerm;57658;51.436;5.980;2023-04-15T00:01:11;32.41;30.63;35.63;;
67300;Laerm;57658;51.436;5.980;2023-04-15T00:01:27;35.62;30.60;44.76;;
67300;Laerm;57658;51.436;5.980;2023-04-15T00:01:39;47.37;37.25;55.76;;
67300;Laerm;57658;51.436;5.980;2023-04-15T00:01:49;62.00;49.58;67.91;;
67300;Laerm;57658;51.436;5.980;2023-04-15T00:01:59;46.57;39.49;56.12;;
67300;Laerm;57658;51.436;5.980;2023-04-15T00:02:16;40.37;35.86;43.25;;
67300;Laerm;57658;51.436;5.980;2023-04-15T00:02:27;36.11;32.95;39.95;;
67300;Laerm;57658;51.436;5.980;2023-04-15T00:02:38;33.74;31.49;36.44;;
67300;Laerm;57658;51.436;5.980;2023-04-15T00:02:48;32.30;30.42;34.76;;
67300;Laerm;57658;51.436;5.980;2023-04-15T00:02:58;32.91;30.55;36.15;;
67300;Laerm;57658;51.436;5.980;2023-04-15T00:03:11;33.26;31.09;35.92;;
67300;Laerm;57658;51.436;5.980;2023-04-15T00:03:21;34.73;32.77;36.83;;
67300;Laerm;57658;51.436;5.980;2023-04-15T00:03:32;35.67;32.98;38.15;;
67300;Laerm;57658;51.436;5.980;2023-04-15T00:03:43;67.07;32.73;77.59;;
67300;Laerm;57658;51.436;5.980;2023-04-15T00:03:54;73.34;62.59;77.98;;
67300;Laerm;57658;51.436;5.980;2023-04-15T00:04:04;60.71;55.88;65.09;;
67300;Laerm;57658;51.436;5.980;2023-04-15T00:04:15;60.65;56.08;62.52;;
67300;Laerm;57658;51.436;5.980;2023-04-15T00:04:26;60.74;56.10;62.59;;
67300;Laerm;57658;51.436;5.980;2023-04-15T00:04:36;63.34;56.54;73.90;;
67300;Laerm;57658;51.436;5.980;2023-04-15T00:04:47;79.65;70.79;83.42;;
67300;Laerm;57658;51.436;5.980;2023-04-15T00:04:57;69.63;47.82;82.35;;
67300;Laerm;57658;51.436;5.980;2023-04-15T00:05:07;48.33;42.59;52.58;;
67300;Laerm;57658;51.436;5.980;2023-04-15T00:05:18;43.46;37.02;50.31;;
67300;Laerm;57658;51.436;5.980;2023-04-15T00:05:28;36.99;34.53;40.89;;
67300;Laerm;57658;51.436;5.980;2023-04-15T00:05:39;34.86;32.67;40.93;;
67300;Laerm;57658;51.436;5.980;2023-04-15T00:05:50;33.92;30.25;44.38;;
67300;Laerm;57658;51.436;5.980;2023-04-15T00:06:01;38.33;31.34;50.76;;
67300;Laerm;57658;51.436;5.980;2023-04-15T00:06:11;45.27;33.45;58.31;;
67300;Laerm;57658;51.436;5.980;2023-04-15T00:06:22;34.57;30.78;45.35;;
67300;Laerm;57658;51.436;5.980;2023-04-15T00:06:32;32.01;29.73;36.60;;
67300;Laerm;57658;51.436;5.980;2023-04-15T00:06:48;31.60;29.79;33.07;;
67300;Laerm;57658;51.436;5.980;2023-04-15T00:06:58;31.31;29.55;33.06;;
67300;Laerm;57658;51.436;5.980;2023-04-15T00:07:09;31.42;30.06;33.64;;
67300;Laerm;57658;51.436;5.980;2023-04-15T00:07:20;31.31;29.43;32.80;;
67300;Laerm;57658;51.436;5.980;2023-04-15T00:07:30;31.19;29.54;32.61;;
67300;Laerm;57658;51.436;5.980;2023-04-15T00:07:40;31.15;29.66;33.64;;
67300;Laerm;57658;51.436;5.980;2023-04-15T00:07:51;30.89;29.44;32.11;;
67300;Laerm;57658;51.436;5.980;2023-04-15T00:08:01;30.91;29.61;32.04;;
67300;Laerm;57658;51.436;5.980;2023-04-15T00:08:11;31.32;29.63;32.98;;
67300;Laerm;57658;51.436;5.980;2023-04-15T00:08:22;31.39;29.59;33.76;;
67300;Laerm;57658;51.436;5.980;2023-04-15T00:08:32;31.49;29.72;33.07;;
67300;Laerm;57658;51.436;5.980;2023-04-15T00:08:43;31.24;29.64;33.03;;
67300;Laerm;57658;51.436;5.980;2023-04-15T00:08:53;31.39;29.80;33.45;;
67300;Laerm;57658;51.436;5.980;2023-04-15T00:09:04;32.94;30.56;36.15;;
67300;Laerm;57658;51.436;5.980;2023-04-15T00:09:14;33.45;30.60;36.57;;
67300;Laerm;57658;51.436;5.980;2023-04-15T00:09:25;33.31;31.44;35.55;;
67300;Laerm;57658;51.436;5.980;2023-04-15T00:09:35;36.71;33.33;41.13;;
67300;Laerm;57658;51.436;5.980;2023-04-15T00:09:45;38.30;34.34;44.31;;
67300;Laerm;57658;51.436;5.980;2023-04-15T00:09:56;38.88;32.77;44.27;;
67300;Laerm;57658;51.436;5.980;2023-04-15T00:10:07;35.49;30.88;41.79;;
67300;Laerm;57658;51.436;5.980;2023-04-15T00:10:17;42.07;33.93;49.92;;
67300;Laerm;57658;51.436;5.980;2023-04-15T00:10:27;62.82;45.48;70.67;;
67300;Laerm;57658;51.436;5.980;2023-04-15T00:10:37;50.44;39.60;56.25;;
67300;Laerm;57658;51.436;5.980;2023-04-15T00:10:48;39.23;33.85;44.55;;
67300;Laerm;57658;51.436;5.980;2023-04-15T00:10:58;34.71;32.62;36.92;;
67300;Laerm;57658;51.436;5.980;2023-04-15T00:11:12;43.14;34.94;50.89;;
67300;Laerm;57658;51.436;5.980;2023-04-15T00:11:22;55.78;37.87;62.11;;
67300;Laerm;57658;51.436;5.980;2023-04-15T00:11:33;53.14;41.07;61.42;;
67300;Laerm;57658;51.436;5.980;2023-04-15T00:11:44;39.81;33.23;44.33;;
67300;Laerm;57658;51.436;5.980;2023-04-15T00:11:54;33.35;31.85;34.77;;
67300;Laerm;57658;51.436;5.980;2023-04-15T00:12:04;32.44;29.98;34.61;;
67300;Laerm;57658;51.436;5.980;2023-04-15T00:12:15;30.88;29.43;32.38;;
67300;Laerm;57658;51.436;5.980;2023-04-15T00:12:26;31.08;29.57;32.63;;
67300;Laerm;57658;51.436;5.980;2023-04-15T00:12:36;31.23;29.77;33.17;;
67300;Laerm;57658;51.436;5.980;2023-04-15T00:12:47;31.53;30.00;33.18;;
67300;Laerm;57658;51.436;5.980;2023-04-15T00:12:57;31.30;29.49;32.95;;
67300;Laerm;57658;51.436;5.980;2023-04-15T00:13:07;30.90;29.08;32.30;;
67300;Laerm;57658;51.436;5.980;2023-04-15T00:13:18;31.05;29.27;32.57;;
67300;Laerm;57658;51.436;5.980;2023-04-15T00:13:29;31.03;29.87;32.42;;
67300;Laerm;57658;51.436;5.980;2023-04-15T00:13:39;31.05;29.75;32.91;;
67300;Laerm;57658;51.436;5.980;2023-04-15T00:13:50;31.02;28.98;32.50;;
67300;Laerm;57658;51.436;5.980;2023-04-15T00:14:00;31.08;29.51;32.28;;
67300;Laerm;57658;51.436;5.980;2023-04-15T00:14:11;31.23;29.69;34.95;;
67300;Laerm;57658;51.436;5.980;2023-04-15T00:14:21;31.49;30.17;33.51;;
67300;Laerm;57658;51.436;5.980;2023-04-15T00:14:33;31.67;30.24;33.73;;
67300;Laerm;57658;51.436;5.980;2023-04-15T00:14:43;31.84;29.92;33.36;;
67300;Laerm;57658;51.436;5.980;2023-04-15T00:14:54;31.10;29.48;32.55;;
67300;Laerm;57658;51.436;5.980;2023-04-15T00:15:06;30.99;29.20;34.23;;
67300;Laerm;57658;51.436;5.980;2023-04-15T00:15:18;30.84;29.66;32.65;;
67300;Laerm;57658;51.436;5.980;2023-04-15T00:15:28;31.23;29.72;35.34;;
67300;Laerm;57658;51.436;5.980;2023-04-15T00:15:39;31.45;29.38;34.24;;
67300;Laerm;57658;51.436;5.980;2023-04-15T00:15:49;31.28;30.09;32.89;;
67300;Laerm;57658;51.436;5.980;2023-04-15T00:16:00;30.79;29.42;32.16;;
67300;Laerm;57658;51.436;5.980;2023-04-15T00:16:10;30.99;29.89;32.27;;
67300;Laerm;57658;51.436;5.980;2023-04-15T00:16:21;30.96;29.71;32.92;;
67300;Laerm;57658;51.436;5.980;2023-04-15T00:16:31;31.49;29.97;36.01;;
67300;Laerm;57658;51.436;5.980;2023-04-15T00:16:42;31.97;30.13;35.16;;
67300;Laerm;57658;51.436;5.980;2023-04-15T00:16:52;32.07;29.75;35.31;;
67300;Laerm;57658;51.436;5.980;2023-04-15T00:17:05;62.55;33.30;71.75;;
67300;Laerm;57658;51.436;5.980;2023-04-15T00:17:15;56.12;38.81;66.20;;
67300;Laerm;57658;51.436;5.980;2023-04-15T00:17:26;37.77;30.84;48.20;;
67300;Laerm;57658;51.436;5.980;2023-04-15T00:17:36;35.32;31.05;39.86;;
67300;Laerm;57658;51.436;5.980;2023-04-15T00:17:49;38.34;32.62;45.86;;
67300;Laerm;57658;51.436;5.980;2023-04-15T00:18:01;36.52;32.48;41.85;;
67300;Laerm;57658;51.436;5.980;2023-04-15T00:18:11;36.59;31.51;42.29;;
67300;Laerm;57658;51.436;5.980;2023-04-15T00:18:22;34.62;31.44;39.77;;
67300;Laerm;57658;51.436;5.980;2023-04-15T00:18:33;32.93;30.52;36.39;;
67300;Laerm;57658;51.436;5.980;2023-04-15T00:18:43;31.73;30.12;34.27;;
67300;Laerm;57658;51.436;5.980;2023-04-15T00:18:53;30.81;29.23;32.27;;
67300;Laerm;57658;51.436;5.980;2023-04-15T00:19:04;31.22;29.97;34.40;;
67300;Laerm;57658;51.436;5.980;2023-04-15T00:19:14;31.27;29.60;32.91;;
67300;Laerm;57658;51.436;5.980;2023-04-15T00:19:24;30.99;29.38;32.54;;
67300;Laerm;57658;51.436;5.980;2023-04-15T00:19:34;30.72;29.49;31.92;;
67300;Laerm;57658;51.436;5.980;2023-04-15T00:19:45;30.80;29.32;32.32;;
67300;Laerm;57658;51.436;5.980;2023-04-15T00:19:56;30.91;29.44;32.38;;
67300;Laerm;57658;51.436;5.980;2023-04-15T00:20:08;30.84;29.13;32.40;;
67300;Laerm;57658;51.436;5.980;2023-04-15T00:20:19;30.92;29.37;32.46;;
67300;Laerm;57658;51.436;5.980;2023-04-15T00:20:29;70.41;29.67;78.03;;
67300;Laerm;57658;51.436;5.980;2023-04-15T00:20:40;71.91;56.49;77.96;;
67300;Laerm;57658;51.436;5.980;2023-04-15T00:20:50;60.61;56.07;62.46;;
67300;Laerm;57658;51.436;5.980;2023-04-15T00:21:01;79.32;58.52;89.17;;
67300;Laerm;57658;51.436;5.980;2023-04-15T00:21:12;58.63;45.75;64.34;;
67300;Laerm;57658;51.436;5.980;2023-04-15T00:21:22;43.24;37.67;48.02;;
67300;Laerm;57658;51.436;5.980;2023-04-15T00:21:32;40.67;37.34;43.88;;
67300;Laerm;57658;51.436;5.980;2023-04-15T00:21:43;39.73;33.74;45.06;;
67300;Laerm;57658;51.436;5.980;2023-04-15T00:21:53;34.44;32.05;37.04;;
67300;Laerm;57658;51.436;5.980;2023-04-15T00:22:03;33.60;31.47;36.52;;
67300;Laerm;57658;51.436;5.980;2023-04-15T00:22:14;33.23;30.96;35.30;;
67300;Laerm;57658;51.436;5.980;2023-04-15T00:22:27;34.33;30.75;41.89;;
67300;Laerm;57658;51.436;5.980;2023-04-15T00:22:38;33.76;31.07;38.53;;
67300;Laerm;57658;51.436;5.980;2023-04-15T00:22:48;33.25;31.24;36.06;;
67300;Laerm;57658;51.436;5.980;2023-04-15T00:22:58;32.97;31.08;36.66;;
67300;Laerm;57658;51.436;5.980;2023-04-15T00:23:09;32.43;30.79;34.17;;
67300;Laerm;57658;51.436;5.980;2023-04-15T00:23:19;32.40;30.81;35.08;;
67300;Laerm;57658;51.436;5.980;2023-04-15T00:23:30;31.90;30.31;34.48;;
67300;Laerm;57658;51.436;5.980;2023-04-15T00:23:41;31.75;30.12;33.50;;
67300;Laerm;57658;51.436;5.980;2023-04-15T00:23:51;31.54;29.97;33.35;;
67300;Laerm;57658;51.436;5.980;2023-04-15T00:24:02;31.32;30.06;32.83;;
67300;Laerm;57658;51.436;5.980;2023-04-15T00:24:13;31.43;29.87;32.83;;
67300;Laerm;57658;51.436;5.980;2023-04-15T00:24:23;31.32;29.75;33.66;;
67300;Laerm;57658;51.436;5.980;2023-04-15T00:24:33;31.39;29.99;34.07;;
67300;Laerm;57658;51.436;5.980;2023-04-15T00:24:44;31.28;30.06;32.50;;
67300;Laerm;57658;51.436;5.980;2023-04-15T00:24:54;31.55;30.23;33.29;;
67300;Laerm;57658;51.436;5.980;2023-04-15T00:25:04;31.57;29.82;33.38;;
67300;Laerm;57658;51.436;5.980;2023-04-15T00:25:14;31.16;29.57;32.55;;
67300;Laerm;57658;51.436;5.980;2023-04-15T00:25:25;31.56;29.57;33.73;;
67300;Laerm;57658;51.436;5.980;2023-04-15T00:25:35;31.95;30.23;34.15;;
67300;Laerm;57658;51.436;5.980;2023-04-15T00:25:45;31.09;29.64;32.58;;
67300;Laerm;57658;51.436;5.980;2023-04-15T00:25:56;31.19;29.87;32.35;;
67300;Laerm;57658;51.436;5.980;2023-04-15T00:26:06;31.31;29.84;32.79;;
67300;Laerm;57658;51.436;5.980;2023-04-15T00:26:17;31.34;29.83;33.26;;
67300;Laerm;57658;51.436;5.980;2023-04-15T00:26:28;31.41;29.85;34.25;;
67300;Laerm;57658;51.436;5.980;2023-04-15T00:26:38;31.29;30.05;32.69;;
67300;Laerm;57658;51.436;5.980;2023-04-15T00:26:49;31.20;29.91;33.63;;
67300;Laerm;57658;51.436;5.980;2023-04-15T00:26:59;31.35;29.70;32.47;;
67300;Laerm;57658;51.436;5.980;2023-04-15T00:27:09;31.08;29.95;32.44;;
67300;Laerm;57658;51.436;5.980;2023-04-15T00:27:20;31.36;29.84;33.43;;
67300;Laerm;57658;51.436;5.980;2023-04-15T00:27:30;31.29;29.97;32.60;;
67300;Laerm;57658;51.436;5.980;2023-04-15T00:27:41;31.42;30.17;32.67;;
67300;Laerm;57658;51.436;5.980;2023-04-15T00:27:51;31.56;29.81;33.01;;
67300;Laerm;57658;51.436;5.980;2023-04-15T00:28:01;31.86;30.50;33.52;;
67300;Laerm;57658;51.436;5.980;2023-04-15T00:28:11;32.22;30.82;33.82;;
67300;Laerm;57658;51.436;5.980;2023-04-15T00:28:22;32.80;30.84;35.77;;
67300;Laerm;57658;51.436;5.980;2023-04-15T00:28:33;33.29;30.53;36.26;;
67300;Laerm;57658;51.436;5.980;2023-04-15T00:28:43;33.20;30.36;37.29;;
67300;Laerm;57658;51.436;5.980;2023-04-15T00:28:53;37.32;33.79;41.22;;
67300;Laerm;57658;51.436;5.980;2023-04-15T00:29:04;34.64;32.44;37.71;;
67300;Laerm;57658;51.436;5.980;2023-04-15T00:29:14;38.06;32.94;42.13;;
67300;Laerm;57658;51.436;5.980;2023-04-15T00:29:24;36.80;32.94;41.69;;
67300;Laerm;57658;51.436;5.980;2023-04-15T00:29:35;37.18;31.29;42.95;;
67300;Laerm;57658;51.436;5.980;2023-04-15T00:29:45;37.05;29.91;43.57;;
67300;Laerm;57658;51.436;5.980;2023-04-15T00:29:55;33.73;31.01;37.95;;
67300;Laerm;57658;51.436;5.980;2023-04-15T00:30:06;43.86;35.97;55.51;;
67300;Laerm;57658;51.436;5.980;2023-04-15T00:30:17;46.78;34.46;54.29;;
67300;Laerm;57658;51.436;5.980;2023-04-15T00:30:27;35.67;33.09;39.37;;
67300;Laerm;57658;51.436;5.980;2023-04-15T00:30:38;32.44;30.44;35.36;;
67300;Laerm;57658;51.436;5.980;2023-04-15T00:30:48;31.82;30.13;37.46;;
67300;Laerm;57658;51.436;5.980;2023-04-15T00:30:59;31.34;29.46;35.72;;
67300;Laerm;57658;51.436;5.980;2023-04-15T00:31:09;49.61;29.97;65.03;;
67300;Laerm;57658;51.436;5.980;2023-04-15T00:31:19;31.65;29.60;35.78;;
67300;Laerm;57658;51.436;5.980;2023-04-15T00:31:30;31.62;29.65;35.41;;
67300;Laerm;57658;51.436;5.980;2023-04-15T00:31:41;33.01;29.66;42.72;;
67300;Laerm;57658;51.436;5.980;2023-04-15T00:31:51;32.73;29.99;37.09;;
67300;Laerm;57658;51.436;5.980;2023-04-15T00:32:01;32.22;29.81;36.52;;
67300;Laerm;57658;51.436;5.980;2023-04-15T00:32:12;32.56;30.46;37.68;;
67300;Laerm;57658;51.436;5.980;2023-04-15T00:32:22;32.71;30.70;37.70;;
67300;Laerm;57658;51.436;5.980;2023-04-15T00:32:32;32.48;30.08;36.35;;
67300;Laerm;57658;51.436;5.980;2023-04-15T00:32:43;32.27;30.18;35.79;;
67300;Laerm;57658;51.436;5.980;2023-04-15T00:32:53;32.20;30.22;36.16;;
67300;Laerm;57658;51.436;5.980;2023-04-15T00:33:04;31.41;29.84;35.95;;
67300;Laerm;57658;51.436;5.980;2023-04-15T00:33:14;31.62;29.83;34.74;;
67300;Laerm;57658;51.436;5.980;2023-04-15T00:33:27;32.46;30.66;35.97;;
67300;Laerm;57658;51.436;5.980;2023-04-15T00:33:38;32.55;30.24;36.98;;
67300;Laerm;57658;51.436;5.980;2023-04-15T00:33:49;32.92;31.15;38.58;;
67300;Laerm;57658;51.436;5.980;2023-04-15T00:33:59;71.75;31.99;78.75;;
67300;Laerm;57658;51.436;5.980;2023-04-15T00:34:09;70.78;55.78;77.84;;
67300;Laerm;57658;51.436;5.980;2023-04-15T00:34:19;60.28;56.25;61.93;;
67300;Laerm;57658;51.436;5.980;2023-04-15T00:34:30;60.65;56.09;62.32;;
67300;Laerm;57658;51.436;5.980;2023-04-15T00:34:40;60.69;56.33;62.39;;
67300;Laerm;57658;51.436;5.980;2023-04-15T00:34:51;76.72;57.98;82.98;;
67300;Laerm;57658;51.436;5.980;2023-04-15T00:35:01;79.82;76.02;83.72;;
67300;Laerm;57658;51.436;5.980;2023-04-15T00:35:12;78.26;58.75;83.94;;
67300;Laerm;57658;51.436;5.980;2023-04-15T00:35:22;57.95;45.06;64.49;;
67300;Laerm;57658;51.436;5.980;2023-04-15T00:35:33;45.39;38.09;61.17;;
67300;Laerm;57658;51.436;5.980;2023-04-15T00:35:44;39.15;34.41;49.23;;
67300;Laerm;57658;51.436;5.980;2023-04-15T00:35:55;34.77;31.22;40.74;;
67300;Laerm;57658;51.436;5.980;2023-04-15T00:36:05;33.06;30.71;38.17;;
67300;Laerm;57658;51.436;5.980;2023-04-15T00:36:16;32.11;30.46;34.16;;
67300;Laerm;57658;51.436;5.980;2023-04-15T00:36:26;32.46;30.27;34.45;;
67300;Laerm;57658;51.436;5.980;2023-04-15T00:36:37;32.70;31.01;34.00;;
67300;Laerm;57658;51.436;5.980;2023-04-15T00:36:47;32.73;30.57;34.80;;
67300;Laerm;57658;51.436;5.980;2023-04-15T00:36:57;31.65;29.83;34.54;;
67300;Laerm;57658;51.436;5.980;2023-04-15T00:37:08;31.52;29.65;33.09;;
67300;Laerm;57658;51.436;5.980;2023-04-15T00:37:19;31.47;30.07;32.76;;
67300;Laerm;57658;51.436;5.980;2023-04-15T00:37:29;31.39;29.90;32.69;;
67300;Laerm;57658;51.436;5.980;2023-04-15T00:37:39;31.34;29.87;32.89;;
67300;Laerm;57658;51.436;5.980;2023-04-15T00:37:50;31.41;30.02;33.23;;
67300;Laerm;57658;51.436;5.980;2023-04-15T00:38:00;31.87;30.12;34.61;;
67300;Laerm;57658;51.436;5.980;2023-04-15T00:38:10;31.51;29.76;32.94;;
67300;Laerm;57658;51.436;5.980;2023-04-15T00:38:21;31.82;29.65;33.10;;
67300;Laerm;57658;51.436;5.980;2023-04-15T00:38:31;32.09;30.45;33.81;;
67300;Laerm;57658;51.436;5.980;2023-04-15T00:38:42;31.92;30.48;33.46;;
67300;Laerm;57658;51.436;5.980;2023-04-15T00:38:52;31.72;30.27;33.34;;
67300;Laerm;57658;51.436;5.980;2023-04-15T00:39:03;32.01;30.23;34.58;;
67300;Laerm;57658;51.436;5.980;2023-04-15T00:39:14;32.48;30.49;38.15;;
67300;Laerm;57658;51.436;5.980;2023-04-15T00:39:25;32.49;30.38;36.03;;
67300;Laerm;57658;51.436;5.980;2023-04-15T00:39:35;33.95;31.08;38.78;;
67300;Laerm;57658;51.436;5.980;2023-04-15T00:39:46;33.61;30.27;38.20;;
67300;Laerm;57658;51.436;5.980;2023-04-15T00:39:56;34.72;30.80;45.06;;
67300;Laerm;57658;51.436;5.980;2023-04-15T00:40:06;34.81;29.96;45.26;;
67300;Laerm;57658;51.436;5.980;2023-04-15T00:40:21;34.80;30.26;40.61;;
67300;Laerm;57658;51.436;5.980;2023-04-15T00:40:33;33.18;29.71;39.41;;
67300;Laerm;57658;51.436;5.980;2023-04-15T00:40:44;32.59;30.75;35.51;;
67300;Laerm;57658;51.436;5.980;2023-04-15T00:40:54;32.36;30.63;34.94;;
67300;Laerm;57658;51.436;5.980;2023-04-15T00:41:05;32.57;30.96;34.72;;
67300;Laerm;57658;51.436;5.980;2023-04-15T00:41:17;34.48;32.52;37.74;;
67300;Laerm;57658;51.436;5.980;2023-04-15T00:41:28;40.45;35.52;46.36;;
67300;Laerm;57658;51.436;5.980;2023-04-15T00:41:38;51.25;41.91;58.70;;
67300;Laerm;57658;51.436;5.980;2023-04-15T00:41:49;58.49;43.13;63.13;;
67300;Laerm;57658;51.436;5.980;2023-04-15T00:41:59;41.03;34.17;51.11;;
67300;Laerm;57658;51.436;5.980;2023-04-15T00:42:09;33.96;32.24;35.66;;
67300;Laerm;57658;51.436;5.980;2023-04-15T00:42:20;32.28;30.29;34.11;;
67300;Laerm;57658;51.436;5.980;2023-04-15T00:42:30;31.43;29.91;33.06;;
67300;Laerm;57658;51.436;5.980;2023-04-15T00:42:41;31.24;29.63;34.09;;
67300;Laerm;57658;51.436;5.980;2023-04-15T00:42:51;31.48;29.73;34.78;;
67300;Laerm;57658;51.436;5.980;2023-04-15T00:43:01;31.68;29.48;35.25;;
67300;Laerm;57658;51.436;5.980;2023-04-15T00:43:13;31.34;29.53;34.36;;
67300;Laerm;57658;51.436;5.980;2023-04-15T00:43:23;35.39;29.74;44.11;;
67300;Laerm;57658;51.436;5.980;2023-04-15T00:43:35;31.50;29.48;38.42;;
67300;Laerm;57658;51.436;5.980;2023-04-15T00:43:45;34.16;29.49;43.19;;
67300;Laerm;57658;51.436;5.980;2023-04-15T00:43:55;33.21;29.84;44.30;;
67300;Laerm;57658;51.436;5.980;2023-04-15T00:44:06;32.75;29.61;40.03;;
67300;Laerm;57658;51.436;5.980;2023-04-15T00:44:16;32.34;29.10;42.57;;
67300;Laerm;57658;51.436;5.980;2023-04-15T00:44:27;31.07;29.65;34.91;;
67300;Laerm;57658;51.436;5.980;2023-04-15T00:44:38;30.92;29.17;35.49;;
67300;Laerm;57658;51.436;5.980;2023-04-15T00:44:48;31.00;29.48;35.04;;
67300;Laerm;57658;51.436;5.980;2023-04-15T00:44:59;31.15;29.62;33.38;;
67300;Laerm;57658;51.436;5.980;2023-04-15T00:45:09;32.15;29.89;35.61;;
67300;Laerm;57658;51.436;5.980;2023-04-15T00:45:20;31.67;30.05;35.72;;
67300;Laerm;57658;51.436;5.980;2023-04-15T00:45:30;31.78;30.02;33.96;;
67300;Laerm;57658;51.436;5.980;2023-04-15T00:45:41;31.37;29.66;34.82;;
67300;Laerm;57658;51.436;5.980;2023-04-15T00:45:51;30.89;29.16;32.51;;
67300;Laerm;57658;51.436;5.980;2023-04-15T00:46:03;32.05;29.68;35.39;;
67300;Laerm;57658;51.436;5.980;2023-04-15T00:46:13;33.27;31.97;34.50;;
67300;Laerm;57658;51.436;5.980;2023-04-15T00:46:26;33.02;31.28;34.36;;
67300;Laerm;57658;51.436;5.980;2023-04-15T00:46:37;31.66;29.58;34.75;;
67300;Laerm;57658;51.436;5.980;2023-04-15T00:46:51;31.01;29.42;32.64;;
67300;Laerm;57658;51.436;5.980;2023-04-15T00:47:02;30.65;29.15;31.92;;
67300;Laerm;57658;51.436;5.980;2023-04-15T00:47:13;30.85;29.21;32.45;;
67300;Laerm;57658;51.436;5.980;2023-04-15T00:47:25;31.40;29.89;33.92;;
67300;Laerm;57658;51.436;5.980;2023-04-15T00:47:36;32.02;29.68;35.49;;
67300;Laerm;57658;51.436;5.980;2023-04-15T00:47:48;32.60;30.42;36.55;;
67300;Laerm;57658;51.436;5.980;2023-04-15T00:47:58;35.36;31.08;40.38;;
67300;Laerm;57658;51.436;5.980;2023-04-15T00:48:09;38.39;31.56;43.80;;
67300;Laerm;57658;51.436;5.980;2023-04-15T00:48:20;38.39;32.19;44.54;;
67300;Laerm;57658;51.436;5.980;2023-04-15T00:48:30;36.64;31.93;41.36;;
67300;Laerm;57658;51.436;5.980;2023-04-15T00:48:41;36.33;30.97;41.35;;
67300;Laerm;57658;51.436;5.980;2023-04-15T00:48:52;35.53;30.94;41.97;;
67300;Laerm;57658;51.436;5.980;2023-04-15T00:49:03;35.00;31.07;41.04;;
67300;Laerm;57658;51.436;5.980;2023-04-15T00:49:14;35.25;32.88;38.84;;
67300;Laerm;57658;51.436;5.980;2023-04-15T00:49:24;33.97;32.23;36.57;;
67300;Laerm;57658;51.436;5.980;2023-04-15T00:49:36;66.80;30.10;78.09;;
67300;Laerm;57658;51.436;5.980;2023-04-15T00:49:46;72.89;65.58;78.17;;
67300;Laerm;57658;51.436;5.980;2023-04-15T00:49:56;61.97;55.52;75.09;;
67300;Laerm;57658;51.436;5.980;2023-04-15T00:50:07;60.20;55.53;62.01;;
67300;Laerm;57658;51.436;5.980;2023-04-15T00:50:18;60.25;55.62;62.15;;
67300;Laerm;57658;51.436;5.980;2023-04-15T00:50:28;77.50;56.45;84.60;;
67300;Laerm;57658;51.436;5.980;2023-04-15T00:50:38;82.54;75.48;88.18;;
67300;Laerm;57658;51.436;5.980;2023-04-15T00:50:48;66.29;50.61;79.74;;
67300;Laerm;57658;51.436;5.980;2023-04-15T00:50:59;50.19;46.65;54.52;;
67300;Laerm;57658;51.436;5.980;2023-04-15T00:51:09;46.94;43.75;56.14;;
67300;Laerm;57658;51.436;5.980;2023-04-15T00:51:19;45.76;41.37;48.44;;
67300;Laerm;57658;51.436;5.980;2023-04-15T00:51:30;44.26;40.87;48.62;;
67300;Laerm;57658;51.436;5.980;2023-04-15T00:51:42;39.77;35.28;43.35;;
67300;Laerm;57658;51.436;5.980;2023-04-15T00:51:52;36.51;33.06;40.42;;
67300;Laerm;57658;51.436;5.980;2023-04-15T00:52:03;38.44;34.16;46.25;;
67300;Laerm;57658;51.436;5.980;2023-04-15T00:52:13;38.65;35.69;43.50;;
67300;Laerm;57658;51.436;5.980;2023-04-15T00:52:23;44.73;40.10;51.33;;
67300;Laerm;57658;51.436;5.980;2023-04-15T00:52:34;39.62;35.26;44.85;;
67300;Laerm;57658;51.436;5.980;2023-04-15T00:52:44;35.11;32.76;37.14;;
67300;Laerm;57658;51.436;5.980;2023-04-15T00:52:54;33.21;31.25;35.31;;
67300;Laerm;57658;51.436;5.980;2023-04-15T00:53:05;31.87;29.69;33.34;;
67300;Laerm;57658;51.436;5.980;2023-04-15T00:53:15;31.95;30.67;33.54;;
67300;Laerm;57658;51.436;5.980;2023-04-15T00:53:25;31.87;30.00;33.67;;
67300;Laerm;57658;51.436;5.980;2023-04-15T00:53:35;32.08;30.28;33.79;;
67300;Laerm;57658;51.436;5.980;2023-04-15T00:53:46;32.09;30.18;33.65;;
67300;Laerm;57658;51.436;5.980;2023-04-15T00:53:56;31.71;30.12;33.37;;
67300;Laerm;57658;51.436;5.980;2023-04-15T00:54:06;32.10;30.35;35.16;;
67300;Laerm;57658;51.436;5.980;2023-04-15T00:54:17;33.83;30.44;38.60;;
67300;Laerm;57658;51.436;5.980;2023-04-15T00:54:27;31.77;30.04;34.04;;
67300;Laerm;57658;51.436;5.980;2023-04-15T00:54:37;31.34;29.94;33.88;;
67300;Laerm;57658;51.436;5.980;2023-04-15T00:54:48;30.98;29.61;32.32;;
67300;Laerm;57658;51.436;5.980;2023-04-15T00:54:58;31.39;29.64;33.07;;
67300;Laerm;57658;51.436;5.980;2023-04-15T00:55:09;30.89;29.29;32.73;;
67300;Laerm;57658;51.436;5.980;2023-04-15T00:55:20;30.72;29.23;32.19;;
67300;Laerm;57658;51.436;5.980;2023-04-15T00:55:30;30.86;29.58;32.86;;
67300;Laerm;57658;51.436;5.980;2023-04-15T00:55:40;30.63;29.20;32.45;;
67300;Laerm;57658;51.436;5.980;2023-04-15T00:55:51;30.85;29.24;32.26;;
67300;Laerm;57658;51.436;5.980;2023-04-15T00:56:01;30.53;28.96;32.18;;
67300;Laerm;57658;51.436;5.980;2023-04-15T00:56:12;30.75;29.21;32.04;;
67300;Laerm;57658;51.436;5.980;2023-04-15T00:56:22;30.74;29.44;31.95;;
67300;Laerm;57658;51.436;5.980;2023-04-15T00:56:34;30.66;29.26;32.01;;
67300;Laerm;57658;51.436;5.980;2023-04-15T00:56:45;30.57;29.23;31.92;;
67300;Laerm;57658;51.436;5.980;2023-04-15T00:56:55;30.49;29.43;31.90;;
67300;Laerm;57658;51.436;5.980;2023-04-15T00:57:05;30.90;29.41;32.61;;
67300;Laerm;57658;51.436;5.980;2023-04-15T00:57:16;31.04;29.15;37.41;;
67300;Laerm;57658;51.436;5.980;2023-04-15T00:57:27;30.84;29.16;33.19;;
67300;Laerm;57658;51.436;5.980;2023-04-15T00:57:38;31.23;29.73;32.74;;
67300;Laerm;57658;51.436;5.980;2023-04-15T00:57:48;34.08;30.69;42.92;;
67300;Laerm;57658;51.436;5.980;2023-04-15T00:57:59;41.64;35.36;49.60;;
67300;Laerm;57658;51.436;5.980;2023-04-15T00:58:09;43.19;34.63;49.36;;
67300;Laerm;57658;51.436;5.980;2023-04-15T00:58:20;60.73;47.68;66.89;;
67300;Laerm;57658;51.436;5.980;2023-04-15T00:58:30;48.56;38.59;52.51;;
67300;Laerm;57658;51.436;5.980;2023-04-15T00:58:41;36.08;32.41;40.23;;
67300;Laerm;57658;51.436;5.980;2023-04-15T00:58:51;34.25;31.31;36.90;;
67300;Laerm;57658;51.436;5.980;2023-04-15T00:59:01;31.24;29.44;33.14;;
67300;Laerm;57658;51.436;5.980;2023-04-15T00:59:12;68.31;30.07;78.01;;
67300;Laerm;57658;51.436;5.980;2023-04-15T00:59:23;72.14;56.93;77.82;;
67300;Laerm;57658;51.436;5.980;2023-04-15T00:59:34;60.00;55.77;61.77;;
67300;Laerm;57658;51.436;5.980;2023-04-15T00:59:45;59.99;55.34;61.99;;